Time;durP1;ratioP1;P1;durP2;ratioP2;P2;SDS_P1;SDS_P2;PMS_P1;PMS_P2;Temp;Humidity;BMP_temperature;BMP_pressure;BME280_temperature;BME280_humidity;BME280_pressure;Samples;Min_cycle;Max_cycle;Signal;HPM_P1;HPM_P2
2021/12/01 00:01:27;;;;;;;3.75;2.87;;;;;;;-0.55;100.00;99255.57;1696052;83;21015;-81
2021/12/01 00:03:55;;;;;;;3.87;3.10;;;;;;;-0.58;100.00;99259.11;1699461;84;21136;-80
2021/12/01 00:06:24;;;;;;;4.00;3.12;;;;;;;-0.56;100.00;99264.14;1700937;83;21148;-80
2021/12/01 00:08:51;;;;;;;4.92;3.47;;;;;;;-0.52;100.00;99262.63;1713037;83;21078;-81
2021/12/01 00:11:18;;;;;;;4.85;3.50;;;;;;;-0.46;100.00;99258.94;1678387;84;21061;-80
2021/12/01 00:13:45;;;;;;;4.90;3.35;;;;;;;-0.44;100.00;99260.13;1672502;84;21054;-80
2021/12/01 00:16:12;;;;;;;6.37;4.33;;;;;;;-0.38;100.00;99261.94;1687137;85;21597;-80
2021/12/01 00:18:41;;;;;;;6.42;3.52;;;;;;;-0.34;100.00;99259.58;1723020;83;21889;-80
2021/12/01 00:21:13;;;;;;;5.25;3.77;;;;;;;-0.29;100.00;99261.09;1722567;83;21086;-81
2021/12/01 00:23:43;;;;;;;8.63;4.50;;;;;;;-0.25;100.00;99283.87;1723577;82;21073;-81
2021/12/01 00:26:10;;;;;;;5.47;3.70;;;;;;;-0.28;100.00;99287.05;1692999;84;21452;-83
2021/12/01 00:28:42;;;;;;;7.03;3.33;;;;;;;-0.34;100.00;99285.16;1723686;83;20983;-85
2021/12/01 00:31:10;;;;;;;4.90;2.70;;;;;;;-0.37;100.00;99278.09;1692978;84;21152;-80
2021/12/01 00:33:38;;;;;;;3.75;2.77;;;;;;;-0.38;100.00;99276.00;1723609;83;21065;-80
2021/12/01 00:36:05;;;;;;;5.90;2.87;;;;;;;-0.38;100.00;99282.83;1643203;84;21037;-80
2021/12/01 00:38:34;;;;;;;3.10;2.55;;;;;;;-0.42;100.00;99283.44;1694822;83;21049;-81
2021/12/01 00:41:04;;;;;;;4.75;3.00;;;;;;;-0.48;100.00;99285.05;1693436;84;21022;-82
2021/12/01 00:43:32;;;;;;;4.20;2.67;;;;;;;-0.56;100.00;99287.16;1694871;83;21103;-81
2021/12/01 00:46:09;;;;;;;5.12;2.77;;;;;;;-0.65;100.00;99287.99;1692879;84;21069;-80
2021/12/01 00:48:28;;;;;;;8.35;3.10;;;;;;;-0.73;100.00;99288.83;1719606;83;21125;-81
2021/12/01 00:50:55;;;;;;;3.83;2.80;;;;;;;-0.76;100.00;99285.59;1693128;84;21508;-80
2021/12/01 00:53:38;;;;;;;;;;;;;;;;;;;;;
2021/12/01 00:56:03;;;;;;;3.65;2.87;;;;;;;-0.76;100.00;99285.59;1670682;84;21010;-81
2021/12/01 00:58:32;;;;;;;3.27;2.62;;;;;;;-0.74;100.00;99282.05;1723994;83;21053;-81
2021/12/01 01:01:01;;;;;;;7.17;2.77;;;;;;;-0.73;100.00;99275.23;1665632;84;21081;-80
2021/12/01 01:03:32;;;;;;;7.67;2.80;;;;;;;-0.71;100.00;99279.36;1665668;84;21046;-81
2021/12/01 01:06:01;;;;;;;3.87;2.70;;;;;;;-0.71;100.00;99274.24;1723687;83;21122;-82
2021/12/01 01:08:30;;;;;;;5.40;2.42;;;;;;;-0.68;100.00;99275.34;1647413;85;21520;-81
2021/12/01 01:11:09;;;;;;;2.90;2.30;;;;;;;-0.64;100.00;99276.02;1693414;84;22068;-80
2021/12/01 01:16:24;;;;;;;3.05;2.20;;;;;;;-0.57;100.00;99283.79;1695965;84;21099;-83
2021/12/01 01:19:01;;;;;;;2.55;2.00;;;;;;;-0.51;100.00;99281.34;1695871;84;21150;-81
2021/12/01 01:21:34;;;;;;;3.05;2.25;;;;;;;-0.49;100.00;99279.55;1669638;84;21823;-84
2021/12/01 01:24:02;;;;;;;3.52;2.50;;;;;;;-0.47;100.00;99272.63;1669915;84;21715;-80
2021/12/01 01:26:31;;;;;;;3.98;2.33;;;;;;;-0.43;100.00;99272.02;1695909;84;21071;-80
2021/12/01 01:28:58;;;;;;;2.92;2.17;;;;;;;-0.41;100.00;99272.31;1696647;83;21067;-80
2021/12/01 01:31:26;;;;;;;4.28;2.37;;;;;;;-0.38;100.00;99262.37;1671706;84;21510;-80
2021/12/01 01:33:54;;;;;;;3.70;2.33;;;;;;;-0.33;100.00;99271.93;1697425;84;21137;-81
2021/12/01 01:36:21;;;;;;;8.88;2.37;;;;;;;-0.35;100.00;99272.45;1671085;84;21029;-80
2021/12/01 01:38:49;;;;;;;3.83;1.90;;;;;;;-0.35;100.00;99269.43;1697554;84;21041;-81
2021/12/01 01:41:16;;;;;;;2.52;2.30;;;;;;;-0.32;100.00;99271.84;1697677;84;21045;-80
2021/12/01 01:43:49;;;;;;;3.10;2.30;;;;;;;-0.29;100.00;99271.32;1697449;84;21091;-82
2021/12/01 01:46:16;;;;;;;4.75;2.55;;;;;;;-0.29;100.00;99277.72;1697649;84;21908;-81
2021/12/01 01:48:53;;;;;;;5.75;2.70;;;;;;;-0.31;100.00;99273.94;1697655;83;21005;-80
2021/12/01 01:51:26;;;;;;;7.00;2.50;;;;;;;-0.33;100.00;99275.30;1697304;83;21542;-81
2021/12/01 01:53:56;;;;;;;2.83;2.33;;;;;;;-0.35;100.00;99269.43;1671834;83;21005;-80
2021/12/01 01:56:25;;;;;;;3.45;2.35;;;;;;;-0.33;100.00;99279.14;1697571;84;21096;-80
2021/12/01 01:58:53;;;;;;;6.45;2.40;;;;;;;-0.38;100.00;99284.95;1697620;83;21166;-81
2021/12/01 02:03:51;;;;;;;4.53;2.12;;;;;;;-0.45;100.00;99298.13;1698004;84;21522;-81
2021/12/01 02:06:23;;;;;;;8.43;2.65;;;;;;;-0.48;100.00;99300.39;1671402;84;21040;-81
2021/12/01 02:08:53;;;;;;;5.40;2.50;;;;;;;-0.47;100.00;99305.88;1698080;84;21615;-79
2021/12/01 02:11:23;;;;;;;4.58;2.37;;;;;;;-0.42;100.00;99313.33;1697834;84;21170;-81
2021/12/01 02:13:51;;;;;;;14.95;2.75;;;;;;;-0.42;100.00;99303.91;1674204;82;21014;-81
2021/12/01 02:16:21;;;;;;;12.53;3.10;;;;;;;-0.40;100.00;99314.89;1702371;83;21029;-81
2021/12/01 02:18:49;;;;;;;5.75;2.50;;;;;;;-0.39;100.00;99311.88;1727421;83;21022;-82
2021/12/01 02:21:39;;;;;;;;;;;;;;;;;;;;;
2021/12/01 02:24:03;;;;;;;3.37;2.47;;;;;;;-0.34;100.00;99314.58;1727745;83;21153;-80
2021/12/01 02:26:35;;;;;;;5.50;2.90;;;;;;;-0.30;100.00;99314.44;1727208;82;21061;-81
2021/12/01 02:29:04;;;;;;;;;;;;;;;-0.27;100.00;99310.42;1730125;83;21128;-85
2021/12/01 02:31:35;;;;;;;5.80;2.75;;;;;;;-0.27;100.00;99316.81;1727084;83;20153;-80
2021/12/01 02:34:09;;;;;;;7.92;3.65;;;;;;;-0.25;100.00;99311.18;1727117;83;21088;-81
2021/12/01 02:36:37;;;;;;;4.60;3.65;;;;;;;-0.24;100.00;99320.52;1726915;83;21169;-81
2021/12/01 02:39:09;;;;;;;7.87;4.33;;;;;;;-0.27;100.00;99320.66;1702258;83;21471;-80
2021/12/01 02:41:36;;;;;;;;;;;;;;;-0.28;100.00;99327.52;1729558;83;21108;-80
2021/12/01 02:44:07;;;;;;;8.75;4.83;;;;;;;-0.26;100.00;99332.11;1701864;83;20183;-80
2021/12/01 02:46:37;;;;;;;10.20;6.53;;;;;;;-0.29;100.00;99330.97;1701692;83;21622;-80
2021/12/01 02:49:06;;;;;;;14.18;8.40;;;;;;;-0.34;100.00;99328.65;1726864;82;21113;-80
2021/12/01 02:51:37;;;;;;;15.95;9.58;;;;;;;-0.36;100.00;99332.19;1701335;83;21086;-81
2021/12/01 02:54:08;;;;;;;18.67;11.38;;;;;;;-0.38;100.00;99338.67;1727029;82;21021;-80
2021/12/01 02:56:35;;;;;;;17.93;10.93;;;;;;;-0.41;100.00;99333.70;1726385;82;21061;-80
2021/12/01 02:59:06;;;;;;;23.15;11.50;;;;;;;-0.49;100.00;99334.09;1726458;83;21554;-82
2021/12/01 03:01:33;;;;;;;22.75;13.22;;;;;;;-0.55;100.00;99338.68;1727100;83;21111;-81
2021/12/01 03:04:00;;;;;;;21.05;12.73;;;;;;;-0.59;100.00;99339.28;1727074;82;21109;-81
2021/12/01 03:06:29;;;;;;;20.88;12.37;;;;;;;-0.65;100.00;99350.64;1722083;83;21079;-79
2021/12/01 03:08:59;;;;;;;23.12;13.32;;;;;;;-0.69;100.00;99352.98;1717602;83;21557;-84
2021/12/01 03:11:28;;;;;;;22.05;13.32;;;;;;;-0.72;100.00;99349.28;1717382;83;21047;-79
2021/12/01 03:13:56;;;;;;;20.05;13.53;;;;;;;-0.71;100.00;99350.09;1717690;82;21797;-82
2021/12/01 03:16:24;;;;;;;24.32;14.38;;;;;;;-0.70;100.00;99355.59;1694554;82;21068;-80
2021/12/01 03:18:52;;;;;;;30.75;15.58;;;;;;;-0.70;100.00;99360.27;1716857;83;21931;-80
2021/12/01 03:21:20;;;;;;;26.55;14.35;;;;;;;-0.68;100.00;99364.84;1717212;83;21110;-80
2021/12/01 03:23:47;;;;;;;22.52;14.25;;;;;;;-0.67;100.00;99368.23;1717507;83;21540;-79
2021/12/01 03:26:14;;;;;;;28.45;16.70;;;;;;;-0.67;100.00;99366.50;1717250;82;21211;-80
2021/12/01 03:28:44;;;;;;;28.50;18.12;;;;;;;-0.62;100.00;99366.73;1710651;83;21084;-80
2021/12/01 03:31:11;;;;;;;30.30;17.55;;;;;;;-0.60;100.00;99363.66;1717384;82;21166;-79
2021/12/01 03:33:38;;;;;;;25.35;17.30;;;;;;;-0.62;100.00;99359.06;1694490;83;21149;-79
2021/12/01 03:36:05;;;;;;;29.37;18.00;;;;;;;-0.66;100.00;99372.45;1717512;82;21000;-78
2021/12/01 03:38:32;;;;;;;31.40;19.55;;;;;;;-0.73;100.00;99365.52;1717387;83;21552;-80
2021/12/01 03:41:00;;;;;;;35.68;21.57;;;;;;;-0.78;100.00;99361.09;1717634;83;21003;-81
2021/12/01 03:43:27;;;;;;;35.25;21.37;;;;;;;-0.79;100.00;99360.71;1721392;83;21536;-82
2021/12/01 03:45:55;;;;;;;32.83;21.02;;;;;;;-0.76;100.00;99365.66;1726869;83;21511;-80
2021/12/01 03:48:23;;;;;;;34.55;22.42;;;;;;;-0.72;100.00;99363.34;1646868;85;21100;-81
2021/12/01 03:50:54;;;;;;;34.03;22.13;;;;;;;-0.66;100.00;99364.31;1665037;85;21955;-79
2021/12/01 03:53:22;;;;;;;;;;;;;;;-0.62;100.00;99362.91;1675870;84;21096;-80
2021/12/01 03:55:50;;;;;;;38.15;22.70;;;;;;;-0.63;100.00;99360.78;1701888;84;20181;-84
2021/12/01 03:58:19;;;;;;;38.35;23.05;;;;;;;-0.64;100.00;99366.36;1702137;84;21578;-80
2021/12/01 04:00:46;;;;;;;31.48;20.88;;;;;;;-0.62;100.00;99366.27;1702201;84;21065;-80
2021/12/01 04:03:14;;;;;;;35.95;23.35;;;;;;;-0.59;100.00;99366.56;1677203;84;21336;-79
2021/12/01 04:05:43;;;;;;;34.58;21.77;;;;;;;-0.56;100.00;99375.38;1697476;83;21109;-80
2021/12/01 04:08:10;;;;;;;32.33;21.75;;;;;;;-0.53;100.00;99377.80;1701675;84;21585;-81
2021/12/01 04:10:38;;;;;;;32.88;21.73;;;;;;;-0.51;100.00;99379.81;1702106;84;21124;-79
2021/12/01 04:13:06;;;;;;;34.03;21.68;;;;;;;-0.48;100.00;99383.05;1677775;84;21021;-79
2021/12/01 04:15:33;;;;;;;31.80;20.50;;;;;;;-0.45;100.00;99387.64;1700252;84;21207;-80
2021/12/01 04:18:00;;;;;;;44.67;21.42;;;;;;;-0.42;100.00;99392.16;1698803;84;22423;-83
2021/12/01 04:20:27;;;;;;;43.35;21.27;;;;;;;-0.25;100.00;99391.77;1699062;84;21025;-82
2021/12/01 04:22:54;;;;;;;76.92;22.82;;;;;;;0.01;100.00;99394.29;1670367;84;21077;-82
2021/12/01 04:25:22;;;;;;;54.35;22.22;;;;;;;0.28;100.00;99384.36;1698440;84;21061;-81
2021/12/01 04:27:49;;;;;;;38.88;20.52;;;;;;;0.47;100.00;99387.25;1698500;84;21132;-83
2021/12/01 04:30:21;;;;;;;52.03;23.83;;;;;;;0.49;100.00;99389.72;1694025;84;21022;-81
2021/12/01 04:32:49;;;;;;;37.00;24.57;;;;;;;0.42;100.00;99393.08;1693942;84;21159;-81
2021/12/01 04:35:20;;;;;;;35.68;23.50;;;;;;;0.35;100.00;99395.59;1670613;84;21061;-83
2021/12/01 04:37:48;;;;;;;95.75;30.77;;;;;;;0.30;100.00;99395.36;1670636;84;21230;-84
2021/12/01 04:40:17;;;;;;;42.45;26.48;;;;;;;0.44;100.00;99391.27;1670418;84;22141;-84
2021/12/01 04:42:44;;;;;;;55.65;28.07;;;;;;;0.70;100.00;99395.44;1698277;84;21351;-84
2021/12/01 04:45:14;;;;;;;45.67;27.45;;;;;;;0.83;100.00;99397.73;1698348;82;21068;-82
2021/12/01 04:47:51;;;;;;;41.70;27.35;;;;;;;0.87;100.00;99399.67;1698593;82;21542;-80
2021/12/01 04:50:23;;;;;;;44.80;25.95;;;;;;;0.74;100.00;99404.63;1670359;85;36752;-81
2021/12/01 04:52:51;;;;;;;50.25;28.17;;;;;;;0.59;100.00;99405.83;1670508;85;22431;-80
2021/12/01 04:55:18;;;;;;;56.58;28.15;;;;;;;0.50;100.00;99406.31;1670260;85;21176;-80
2021/12/01 04:57:48;;;;;;;45.15;26.33;;;;;;;0.41;100.00;99410.62;1670180;85;21084;-84
2021/12/01 05:00:19;;;;;;;47.70;27.17;;;;;;;0.34;100.00;99416.52;1670175;85;21615;-82
2021/12/01 05:02:46;;;;;;;43.17;26.75;;;;;;;0.29;100.00;99416.75;1666433;85;21700;-80
2021/12/01 05:05:14;;;;;;;43.87;26.90;;;;;;;0.22;100.00;99423.09;1665141;85;21190;-80
2021/12/01 05:07:41;;;;;;;39.50;25.30;;;;;;;0.14;100.00;99420.94;1669865;85;21074;-81
2021/12/01 05:10:08;;;;;;;43.08;26.07;;;;;;;0.07;100.00;99431.55;1670303;85;21141;-83
2021/12/01 05:12:38;;;;;;;44.33;23.92;;;;;;;0.03;100.00;99424.95;1670153;85;21042;-81
2021/12/01 05:15:06;;;;;;;35.68;22.55;;;;;;;-0.03;100.00;99428.17;1668105;85;21022;-81
2021/12/01 05:17:36;;;;;;;40.63;21.93;;;;;;;-0.02;100.00;99426.45;1657593;86;21800;-86
2021/12/01 05:20:05;;;;;;;33.90;21.17;;;;;;;-0.02;100.00;99424.71;1656977;85;21085;-81
2021/12/01 05:22:33;;;;;;;31.97;21.25;;;;;;;-0.03;100.00;99429.92;1657663;86;21082;-81
2021/12/01 05:25:02;;;;;;;60.45;22.05;;;;;;;-0.03;100.00;99429.45;1657626;85;21089;-80
2021/12/01 05:27:30;;;;;;;42.10;20.95;;;;;;;0.02;100.00;99434.81;1657543;86;21547;-82
2021/12/01 05:29:57;;;;;;;22.65;16.95;;;;;;;0.06;100.00;99437.58;1657741;85;21207;-81
2021/12/01 05:32:24;;;;;;;19.92;13.75;;;;;;;0.01;100.00;99436.99;1682794;84;21150;-81
2021/12/01 05:34:51;;;;;;;21.93;13.72;;;;;;;-0.21;100.00;99442.72;1661629;85;21074;-81
2021/12/01 05:37:19;;;;;;;28.20;13.65;;;;;;;-0.41;100.00;99442.88;1691671;84;21038;-81
2021/12/01 05:39:48;;;;;;;19.73;13.90;;;;;;;-0.55;100.00;99445.63;1686807;84;21536;-82
2021/12/01 05:42:16;;;;;;;23.10;13.95;;;;;;;-0.60;100.00;99442.47;1685097;84;21594;-81
2021/12/01 05:44:44;;;;;;;19.30;13.10;;;;;;;-0.62;100.00;99442.17;1685012;84;21090;-80
2021/12/01 05:47:12;;;;;;;19.90;13.60;;;;;;;-0.66;100.00;99447.42;1685195;84;21054;-81
2021/12/01 05:49:44;;;;;;;19.12;12.68;;;;;;;-0.66;100.00;99446.14;1685330;84;21046;-81
2021/12/01 05:52:16;;;;;;;17.45;12.60;;;;;;;-0.66;100.00;99450.44;1685102;85;21065;-81
2021/12/01 05:54:46;;;;;;;18.85;13.18;;;;;;;-0.65;100.00;99446.52;1661638;85;21093;-81
2021/12/01 05:57:13;;;;;;;18.57;13.45;;;;;;;-0.61;100.00;99445.11;1681728;85;21038;-80
2021/12/01 05:59:40;;;;;;;23.38;13.22;;;;;;;-0.59;100.00;99450.52;1685073;85;21054;-80
2021/12/01 06:02:07;;;;;;;23.47;14.28;;;;;;;-0.55;100.00;99455.04;1685254;85;21122;-80
2021/12/01 06:04:34;;;;;;;20.10;13.80;;;;;;;-0.45;100.00;99468.20;1685021;84;21082;-80
2021/12/01 06:07:01;;;;;;;19.48;13.72;;;;;;;-0.36;100.00;99468.59;1661585;85;21141;-79
2021/12/01 06:09:29;;;;;;;22.32;15.18;;;;;;;-0.26;100.00;99469.42;1650114;85;21039;-81
2021/12/01 06:11:56;;;;;;;23.60;17.05;;;;;;;-0.29;100.00;99469.59;1673545;85;21145;-81
2021/12/01 06:14:23;;;;;;;30.37;22.13;;;;;;;-0.32;100.00;99471.39;1673335;85;21993;-80
2021/12/01 06:16:50;;;;;;;29.12;21.48;;;;;;;-0.33;100.00;99463.80;1670999;85;21035;-81
2021/12/01 06:19:17;;;;;;;33.28;23.87;;;;;;;-0.30;100.00;99464.09;1670288;85;21839;-80
2021/12/01 06:21:44;;;;;;;36.38;25.23;;;;;;;-0.28;100.00;99463.58;1642874;84;21168;-80
2021/12/01 06:24:12;;;;;;;36.20;26.07;;;;;;;-0.24;100.00;99458.67;1643002;85;22031;-81
2021/12/01 06:26:39;;;;;;;35.73;25.70;;;;;;;-0.18;100.00;99458.37;1643678;84;21129;-80
2021/12/01 06:29:07;;;;;;;34.95;24.37;;;;;;;-0.14;100.00;99461.17;1670322;85;21085;-80
2021/12/01 06:31:34;;;;;;;34.65;24.37;;;;;;;-0.10;100.00;99460.56;1670330;85;21160;-82
2021/12/01 06:34:02;;;;;;;32.70;22.30;;;;;;;-0.05;100.00;99456.88;1670236;84;21110;-85
2021/12/01 06:36:30;;;;;;;33.15;21.60;;;;;;;-0.03;100.00;99457.61;1670534;85;21645;-85
2021/12/01 06:38:58;;;;;;;29.27;19.92;;;;;;;-0.01;100.00;99458.83;1670367;84;21988;-81
2021/12/01 06:41:24;;;;;;;26.07;19.30;;;;;;;0.01;100.00;99457.00;1670346;84;21093;-81
2021/12/01 06:43:51;;;;;;;27.05;18.37;;;;;;;0.06;100.00;99459.34;1670122;85;21200;-81
2021/12/01 06:46:19;;;;;;;24.60;17.65;;;;;;;0.10;100.00;99463.41;1670147;85;21086;-82
2021/12/01 06:48:46;;;;;;;23.75;17.32;;;;;;;0.16;100.00;99460.53;1670253;84;21121;-81
2021/12/01 06:51:13;;;;;;;22.27;16.32;;;;;;;0.21;100.00;99450.88;1642737;85;21117;-80
2021/12/01 06:53:41;;;;;;;20.50;15.65;;;;;;;0.25;100.00;99454.95;1670430;84;21200;-80
2021/12/01 06:56:10;;;;;;;22.50;16.02;;;;;;;0.30;100.00;99450.42;1670297;85;21149;-82
2021/12/01 06:58:38;;;;;;;20.00;15.43;;;;;;;0.37;100.00;99461.63;1642601;85;21618;-80
2021/12/01 07:01:06;;;;;;;22.00;15.40;;;;;;;0.39;100.00;99461.94;1670074;85;21191;-80
2021/12/01 07:03:36;;;;;;;21.12;14.47;;;;;;;0.44;100.00;99461.70;1670293;84;21109;-81
2021/12/01 07:06:05;;;;;;;18.73;14.47;;;;;;;0.46;100.00;99465.84;1670095;85;21014;-81
2021/12/01 07:08:35;;;;;;;19.65;14.68;;;;;;;0.48;100.00;99468.31;1670299;84;21078;-80
2021/12/01 07:11:04;;;;;;;19.45;13.62;;;;;;;0.49;100.00;99471.25;1642797;85;21026;-80
2021/12/01 07:13:35;;;;;;;16.90;13.35;;;;;;;0.54;100.00;99469.73;1670658;84;21074;-80
2021/12/01 07:16:03;;;;;;;17.90;13.55;;;;;;;0.56;100.00;99467.46;1670556;84;21643;-84
2021/12/01 07:18:32;;;;;;;21.00;13.55;;;;;;;0.60;100.00;99467.66;1694985;83;21021;-80
2021/12/01 07:20:59;;;;;;;20.23;13.90;;;;;;;0.62;100.00;99462.48;1671065;84;21793;-80
2021/12/01 07:23:26;;;;;;;19.90;14.25;;;;;;;0.65;100.00;99466.61;1695170;83;21295;-80
2021/12/01 07:25:57;;;;;;;22.42;15.03;;;;;;;0.67;100.00;99459.67;1671221;84;21042;-80
2021/12/01 07:28:44;;;;;;;21.75;15.70;;;;;;;0.71;100.00;99463.28;1695116;83;21409;-80
2021/12/01 07:31:14;;;;;;;23.67;15.68;;;;;;;0.74;100.00;99469.52;1626086;85;21153;-80
2021/12/01 07:33:41;;;;;;;20.20;14.60;;;;;;;0.80;100.00;99463.23;1694875;83;21149;-81
2021/12/01 07:36:08;;;;;;;23.22;16.23;;;;;;;0.84;100.00;99467.75;1670728;85;21508;-81
2021/12/01 07:38:36;;;;;;;25.23;16.77;;;;;;;0.88;100.00;99460.28;1695067;83;21060;-81
2021/12/01 07:41:05;;;;;;;23.60;17.62;;;;;;;0.86;100.00;99460.34;1670949;84;21500;-80
2021/12/01 07:43:32;;;;;;;25.92;18.00;;;;;;;0.85;100.00;99456.12;1694892;83;21049;-80
2021/12/01 07:46:01;;;;;;;25.95;18.80;;;;;;;0.87;100.00;99456.06;1670439;85;21275;-81
2021/12/01 07:48:31;;;;;;;27.05;19.32;;;;;;;0.86;100.00;99453.94;1660042;85;21117;-80
2021/12/01 07:50:58;;;;;;;28.50;21.12;;;;;;;0.82;100.00;99456.30;1640525;85;21112;-80
2021/12/01 07:53:26;;;;;;;30.27;21.02;;;;;;;0.74;100.00;99454.60;1665049;85;21591;-81
2021/12/01 07:55:56;;;;;;;41.58;25.52;;;;;;;0.68;100.00;99452.37;1670361;85;21084;-80
2021/12/01 07:58:24;;;;;;;43.00;28.17;;;;;;;0.61;100.00;99444.98;1670326;85;21240;-81
2021/12/01 08:00:51;;;;;;;41.15;28.45;;;;;;;0.61;100.00;99445.45;1670391;85;21559;-81
2021/12/01 08:03:18;;;;;;;42.80;28.77;;;;;;;0.62;100.00;99444.08;1669925;84;21079;-81
2021/12/01 08:05:45;;;;;;;41.53;26.02;;;;;;;0.65;100.00;99437.14;1642580;85;21081;-81
2021/12/01 08:08:13;;;;;;;29.92;21.50;;;;;;;0.63;100.00;99441.89;1667732;85;21665;-80
2021/12/01 08:10:41;;;;;;;31.37;18.82;;;;;;;0.62;100.00;99431.27;1646595;85;21081;-80
2021/12/01 08:13:09;;;;;;;23.83;16.70;;;;;;;0.66;100.00;99428.55;1668905;84;21014;-81
2021/12/01 08:15:36;;;;;;;19.77;14.73;;;;;;;0.67;100.00;99427.65;1668912;84;21567;-80
2021/12/01 08:18:04;;;;;;;20.80;14.83;;;;;;;0.68;100.00;99422.91;1689385;84;21097;-81
2021/12/01 08:20:33;;;;;;;25.23;14.75;;;;;;;0.70;100.00;99427.03;1661281;84;21635;-84
2021/12/01 08:23:01;;;;;;;34.08;15.50;;;;;;;0.78;100.00;99424.05;1661261;84;21936;-84
2021/12/01 08:25:28;;;;;;;25.85;12.98;;;;;;;1.03;100.00;99416.31;1697850;84;21042;-84
2021/12/01 08:27:56;;;;;;;26.73;13.05;;;;;;;1.25;100.00;99420.63;1719031;82;21580;-85
2021/12/01 08:30:34;;;;;;;19.50;12.30;;;;;;;1.38;100.00;99422.52;1723541;83;21053;-85
2021/12/01 08:33:19;;;;;;;27.27;13.80;;;;;;;1.50;100.00;99426.13;1707837;83;21124;-84
2021/12/01 08:35:47;;;;;;;23.02;12.78;;;;;;;1.63;100.00;99416.00;1703302;83;21174;-85
2021/12/01 08:38:15;;;;;;;17.92;11.75;;;;;;;1.78;100.00;99414.28;1689444;84;21022;-83
2021/12/01 08:40:48;;;;;;;17.12;11.08;;;;;;;1.81;100.00;99409.79;1692699;84;21694;-84
2021/12/01 08:43:15;;;;;;;14.60;11.65;;;;;;;1.84;100.00;99408.81;1698241;84;21081;-84
2021/12/01 08:45:43;;;;;;;16.20;11.68;;;;;;;1.84;100.00;99407.06;1698045;84;21034;-85
2021/12/01 08:48:12;;;;;;;18.23;10.98;;;;;;;1.90;100.00;99402.03;1698509;84;21817;-84
2021/12/01 08:50:44;;;;;;;16.20;11.75;;;;;;;1.94;100.00;99394.97;1689530;84;21504;-85
2021/12/01 08:53:16;;;;;;;17.87;10.23;;;;;;;1.95;100.00;99390.21;1695289;84;21093;-83
2021/12/01 08:55:45;;;;;;;24.87;11.73;;;;;;;1.98;100.00;99385.72;1669740;84;21081;-87
2021/12/01 08:58:16;;;;;;;20.95;10.45;;;;;;;2.00;100.00;99385.62;1698585;84;22140;-83
2021/12/01 09:00:47;;;;;;;14.28;10.53;;;;;;;2.04;100.00;99381.97;1691299;84;21131;-84
2021/12/01 09:03:20;;;;;;;24.72;12.47;;;;;;;2.06;100.00;99382.68;1666285;84;21096;-86
2021/12/01 09:05:49;;;;;;;15.18;10.48;;;;;;;2.09;100.00;99373.96;1669306;84;21026;-83
2021/12/01 09:08:22;;;;;;;19.77;11.43;;;;;;;2.02;100.00;99376.09;1678690;84;21540;-84
2021/12/01 09:10:52;;;;;;;17.30;12.45;;;;;;;2.00;100.00;99375.34;1720968;81;21413;-84
2021/12/01 09:13:23;;;;;;;22.50;13.62;;;;;;;2.00;100.00;99385.62;1698103;82;21173;-83
2021/12/01 09:15:52;;;;;;;17.85;13.22;;;;;;;2.01;100.00;99389.38;1672779;84;21096;-83
2021/12/01 09:18:22;;;;;;;18.17;12.95;;;;;;;2.04;100.00;99375.55;1681461;84;21568;-83
2021/12/01 09:20:51;;;;;;;18.48;13.98;;;;;;;2.09;100.00;99372.23;1657194;84;21085;-82
2021/12/01 09:23:19;;;;;;;20.08;14.05;;;;;;;2.10;100.00;99373.89;1685066;84;21046;-83
2021/12/01 09:25:47;;;;;;;20.02;14.90;;;;;;;2.09;100.00;99372.23;1680965;84;21575;-84
2021/12/01 09:28:20;;;;;;;20.52;15.25;;;;;;;2.07;100.00;99362.98;1690557;84;21582;-84
2021/12/01 09:30:55;;;;;;;28.07;15.40;;;;;;;2.11;100.00;99351.15;1676844;83;21606;-84
2021/12/01 09:33:24;;;;;;;28.23;14.78;;;;;;;2.14;100.00;99348.38;1659872;84;21081;-83
2021/12/01 09:35:52;;;;;;;21.17;15.18;;;;;;;2.17;100.00;99348.20;1671424;84;21014;-83
2021/12/01 09:38:21;;;;;;;26.57;15.28;;;;;;;2.17;100.00;99343.51;1651749;85;21166;-83
2021/12/01 09:40:53;;;;;;;22.15;14.98;;;;;;;2.19;100.00;99345.09;1672690;84;21646;-84
2021/12/01 09:43:25;;;;;;;21.33;13.98;;;;;;;2.21;100.00;99339.38;1678001;84;22443;-85
2021/12/01 09:45:54;;;;;;;22.48;14.83;;;;;;;2.25;100.00;99334.88;1681366;84;21641;-83
2021/12/01 09:48:24;;;;;;;20.65;14.43;;;;;;;2.26;100.00;99339.10;1672990;84;21049;-82
2021/12/01 09:50:52;;;;;;;21.12;13.65;;;;;;;2.29;100.00;99336.80;1674107;84;21574;-85
2021/12/01 09:53:20;;;;;;;18.07;12.35;;;;;;;2.32;100.00;99332.77;1694144;83;21045;-83
2021/12/01 09:55:47;;;;;;;15.93;11.97;;;;;;;2.34;100.00;99336.08;1672754;84;21034;-83
2021/12/01 09:58:30;;;;;;;20.05;13.05;;;;;;;2.32;100.00;99332.77;1672142;84;21940;-84
2021/12/01 10:00:59;;;;;;;16.73;11.70;;;;;;;2.30;100.00;99334.60;1637326;84;21104;-85
2021/12/01 10:03:29;;;;;;;18.07;11.90;;;;;;;2.29;100.00;99331.66;1671864;84;21183;-83
2021/12/01 10:06:17;;;;;;;16.90;11.30;;;;;;;2.33;100.00;99332.67;1669126;84;21051;-82
2021/12/01 10:08:54;;;;;;;17.10;11.25;;;;;;;2.41;100.00;99330.08;1676686;84;21101;-83
2021/12/01 10:11:26;;;;;;;18.23;11.75;;;;;;;2.45;100.00;99329.80;1709197;82;21584;-88
2021/12/01 10:14:09;;;;;;;14.58;10.13;;;;;;;2.45;100.00;99328.52;1695046;84;21072;-85
2021/12/01 10:16:41;;;;;;;15.90;11.03;;;;;;;2.43;100.00;99329.09;1674732;82;21544;-83
2021/12/01 10:19:16;;;;;;;15.40;10.95;;;;;;;2.40;100.00;99326.70;1711100;82;21527;-84
2021/12/01 10:21:52;;;;;;;15.00;10.65;;;;;;;2.40;100.00;99328.46;1681299;84;21043;-85
2021/12/01 10:24:25;;;;;;;16.90;11.10;;;;;;;2.40;100.00;99336.98;1655512;84;21051;-90
2021/12/01 10:27:04;;;;;;;16.48;11.25;;;;;;;2.36;100.00;99335.06;1704553;82;21690;-85
2021/12/01 10:29:45;;;;;;;15.65;11.25;;;;;;;2.35;100.00;99331.31;1714422;83;21149;-83
2021/12/01 10:32:17;;;;;;;14.20;10.55;;;;;;;2.35;100.00;99327.45;1663767;83;21522;-83
2021/12/01 10:34:53;;;;;;;14.53;9.93;;;;;;;2.34;100.00;99330.47;1721828;82;21031;-82
2021/12/01 10:37:33;;;;;;;13.75;10.60;;;;;;;2.32;100.00;99325.06;1710731;82;21099;-85
2021/12/01 10:40:17;;;;;;;15.28;10.68;;;;;;;2.29;100.00;99330.37;1722693;82;21085;-82
2021/12/01 10:43:02;;;;;;;14.43;10.65;;;;;;;2.24;100.00;99333.25;1704467;82;21041;-87
2021/12/01 10:45:34;;;;;;;14.45;10.65;;;;;;;2.22;100.00;99329.95;1718920;82;20991;-84
2021/12/01 10:48:07;;;;;;;13.40;10.03;;;;;;;2.20;100.00;99336.44;1685419;83;21100;-83
2021/12/01 10:50:39;;;;;;;14.63;9.83;;;;;;;2.14;100.00;99327.83;1690411;83;21061;-85
2021/12/01 10:53:15;;;;;;;15.03;10.00;;;;;;;2.12;100.00;99327.12;1712050;83;21001;-83
2021/12/01 10:55:46;;;;;;;14.25;9.68;;;;;;;2.07;100.00;99331.69;1712223;83;21116;-82
2021/12/01 10:58:16;;;;;;;13.55;10.60;;;;;;;2.03;100.00;99332.34;1668787;84;21074;-85
2021/12/01 11:00:51;;;;;;;15.72;11.53;;;;;;;2.02;100.00;99335.00;1711085;82;25693;-87
2021/12/01 11:03:26;;;;;;;13.25;9.95;;;;;;;2.04;100.00;99333.18;1686420;83;21093;-82
2021/12/01 11:06:20;;;;;;;17.12;11.60;;;;;;;2.06;100.00;99332.60;1706670;83;21051;-81
2021/12/01 11:08:58;;;;;;;16.70;11.50;;;;;;;2.01;100.00;99327.74;1711289;82;21193;-83
2021/12/01 11:11:44;;;;;;;15.20;10.93;;;;;;;1.98;100.00;99328.39;1718264;81;21104;-83
2021/12/01 11:14:17;;;;;;;14.18;10.55;;;;;;;2.01;100.00;99332.06;1685286;83;21581;-82
2021/12/01 11:16:46;;;;;;;14.10;10.33;;;;;;;1.97;100.00;99325.45;1715747;82;21140;-84
2021/12/01 11:19:14;;;;;;;14.55;10.32;;;;;;;1.96;100.00;99327.20;1696796;83;21535;-82
2021/12/01 11:21:42;;;;;;;18.62;12.35;;;;;;;1.98;100.00;99323.25;1676944;84;21625;-82
2021/12/01 11:24:12;;;;;;;18.45;11.75;;;;;;;1.96;100.00;99321.26;1676106;84;21133;-82
2021/12/01 11:26:44;;;;;;;17.05;11.65;;;;;;;2.01;100.00;99316.66;1700840;83;21041;-83
2021/12/01 11:29:14;;;;;;;22.10;12.20;;;;;;;2.05;100.00;99314.26;1698551;83;21356;-85
2021/12/01 11:31:46;;;;;;;16.48;11.35;;;;;;;2.07;100.00;99320.13;1701531;83;21167;-82
2021/12/01 11:34:18;;;;;;;17.55;11.57;;;;;;;2.09;100.00;99315.73;1708873;83;21638;-83
2021/12/01 11:36:52;;;;;;;24.27;13.13;;;;;;;2.11;100.00;99310.06;1664393;83;21101;-81